sensor_id;sensor_type;location;lat;lon;timestamp;P1;durP1;ratioP1;P2;durP2;ratioP2
9960;SDS011;5021;51.506;11.320;2023-07-16T00:02:15;6.83;;;4.60;;
9960;SDS011;5021;51.506;11.320;2023-07-16T00:04:41;6.07;;;4.23;;
9960;SDS011;5021;51.506;11.320;2023-07-16T00:07:07;5.83;;;4.33;;
9960;SDS011;5021;51.506;11.320;2023-07-16T00:09:35;7.63;;;4.40;;
9960;SDS011;5021;51.506;11.320;2023-07-16T00:12:01;7.07;;;4.30;;
9960;SDS011;5021;51.506;11.320;2023-07-16T00:14:27;5.43;;;4.23;;
9960;SDS011;5021;51.506;11.320;2023-07-16T00:16:53;8.17;;;4.70;;
9960;SDS011;5021;51.506;11.320;2023-07-16T00:19:19;6.13;;;4.90;;
9960;SDS011;5021;51.506;11.320;2023-07-16T00:21:45;7.30;;;4.60;;
9960;SDS011;5021;51.506;11.320;2023-07-16T00:24:10;6.00;;;4.40;;
9960;SDS011;5021;51.506;11.320;2023-07-16T00:26:36;7.20;;;5.37;;
9960;SDS011;5021;51.506;11.320;2023-07-16T00:29:02;7.40;;;4.87;;
9960;SDS011;5021;51.506;11.320;2023-07-16T00:31:28;6.53;;;4.97;;
9960;SDS011;5021;51.506;11.320;2023-07-16T00:33:54;6.57;;;5.00;;
9960;SDS011;5021;51.506;11.320;2023-07-16T00:36:20;8.10;;;5.10;;
9960;SDS011;5021;51.506;11.320;2023-07-16T00:38:46;9.80;;;5.63;;
9960;SDS011;5021;51.506;11.320;2023-07-16T00:41:13;5.80;;;4.77;;
9960;SDS011;5021;51.506;11.320;2023-07-16T00:43:39;6.30;;;4.63;;
9960;SDS011;5021;51.506;11.320;2023-07-16T00:46:05;6.60;;;4.60;;
9960;SDS011;5021;51.506;11.320;2023-07-16T00:48:31;7.43;;;5.00;;
9960;SDS011;5021;51.506;11.320;2023-07-16T00:50:57;6.77;;;5.30;;
9960;SDS011;5021;51.506;11.320;2023-07-16T00:53:24;6.00;;;5.30;;
9960;SDS011;5021;51.506;11.320;2023-07-16T00:55:50;6.63;;;5.00;;
9960;SDS011;5021;51.506;11.320;2023-07-16T00:58:17;7.50;;;5.57;;
9960;SDS011;5021;51.506;11.320;2023-07-16T01:00:43;5.83;;;5.20;;
9960;SDS011;5021;51.506;11.320;2023-07-16T01:03:10;6.93;;;5.07;;
9960;SDS011;5021;51.506;11.320;2023-07-16T01:08:07;5.60;;;5.00;;
9960;SDS011;5021;51.506;11.320;2023-07-16T01:10:34;5.60;;;5.10;;
9960;SDS011;5021;51.506;11.320;2023-07-16T01:13:01;8.57;;;4.97;;
9960;SDS011;5021;51.506;11.320;2023-07-16T01:15:27;6.03;;;4.60;;
9960;SDS011;5021;51.506;11.320;2023-07-16T01:17:53;5.63;;;5.13;;
9960;SDS011;5021;51.506;11.320;2023-07-16T01:20:19;4.70;;;4.30;;
9960;SDS011;5021;51.506;11.320;2023-07-16T01:25:35;6.70;;;5.30;;
9960;SDS011;5021;51.506;11.320;2023-07-16T01:28:06;9.03;;;4.93;;
9960;SDS011;5021;51.506;11.320;2023-07-16T01:30:37;6.37;;;5.10;;
9960;SDS011;5021;51.506;11.320;2023-07-16T01:33:04;6.03;;;5.13;;
9960;SDS011;5021;51.506;11.320;2023-07-16T01:35:31;5.70;;;5.03;;
9960;SDS011;5021;51.506;11.320;2023-07-16T01:37:57;6.03;;;4.87;;
9960;SDS011;5021;51.506;11.320;2023-07-16T01:40:23;5.80;;;4.60;;
9960;SDS011;5021;51.506;11.320;2023-07-16T01:42:48;5.10;;;4.50;;
9960;SDS011;5021;51.506;11.320;2023-07-16T01:45:14;5.27;;;4.40;;
9960;SDS011;5021;51.506;11.320;2023-07-16T01:50:12;5.20;;;4.37;;
9960;SDS011;5021;51.506;11.320;2023-07-16T01:52:38;6.33;;;4.33;;
9960;SDS011;5021;51.506;11.320;2023-07-16T01:55:04;4.80;;;4.27;;
9960;SDS011;5021;51.506;11.320;2023-07-16T01:57:31;5.10;;;4.60;;
9960;SDS011;5021;51.506;11.320;2023-07-16T01:59:57;5.13;;;4.73;;
9960;SDS011;5021;51.506;11.320;2023-07-16T02:02:22;6.17;;;4.47;;
9960;SDS011;5021;51.506;11.320;2023-07-16T02:04:48;5.93;;;4.33;;
9960;SDS011;5021;51.506;11.320;2023-07-16T02:07:14;4.50;;;3.97;;
9960;SDS011;5021;51.506;11.320;2023-07-16T02:09:40;5.17;;;3.87;;
9960;SDS011;5021;51.506;11.320;2023-07-16T02:12:06;4.97;;;3.87;;
9960;SDS011;5021;51.506;11.320;2023-07-16T02:14:32;4.07;;;3.50;;
9960;SDS011;5021;51.506;11.320;2023-07-16T02:16:58;4.03;;;3.47;;
9960;SDS011;5021;51.506;11.320;2023-07-16T02:19:24;3.97;;;3.57;;
9960;SDS011;5021;51.506;11.320;2023-07-16T02:21:51;5.47;;;3.70;;
9960;SDS011;5021;51.506;11.320;2023-07-16T02:24:17;4.07;;;3.63;;
9960;SDS011;5021;51.506;11.320;2023-07-16T02:26:42;4.33;;;3.67;;
9960;SDS011;5021;51.506;11.320;2023-07-16T02:29:08;3.83;;;3.43;;
9960;SDS011;5021;51.506;11.320;2023-07-16T02:31:35;4.70;;;3.40;;
9960;SDS011;5021;51.506;11.320;2023-07-16T02:34:01;5.23;;;3.67;;
9960;SDS011;5021;51.506;11.320;2023-07-16T02:36:27;4.47;;;3.50;;
9960;SDS011;5021;51.506;11.320;2023-07-16T02:38:53;4.00;;;3.50;;
9960;SDS011;5021;51.506;11.320;2023-07-16T02:41:19;6.17;;;3.53;;
9960;SDS011;5021;51.506;11.320;2023-07-16T02:43:45;8.67;;;4.00;;
9960;SDS011;5021;51.506;11.320;2023-07-16T02:46:11;5.30;;;3.70;;
9960;SDS011;5021;51.506;11.320;2023-07-16T02:48:37;4.10;;;3.70;;
9960;SDS011;5021;51.506;11.320;2023-07-16T02:51:03;4.03;;;3.50;;
9960;SDS011;5021;51.506;11.320;2023-07-16T02:53:29;4.80;;;3.90;;
9960;SDS011;5021;51.506;11.320;2023-07-16T02:55:55;4.17;;;3.77;;
9960;SDS011;5021;51.506;11.320;2023-07-16T02:58:21;5.03;;;3.93;;
9960;SDS011;5021;51.506;11.320;2023-07-16T03:00:47;6.57;;;4.20;;
9960;SDS011;5021;51.506;11.320;2023-07-16T03:03:13;4.20;;;3.80;;
9960;SDS011;5021;51.506;11.320;2023-07-16T03:05:39;5.77;;;3.43;;
9960;SDS011;5021;51.506;11.320;2023-07-16T03:08:05;4.97;;;3.70;;
9960;SDS011;5021;51.506;11.320;2023-07-16T03:10:31;3.87;;;3.47;;
9960;SDS011;5021;51.506;11.320;2023-07-16T03:12:57;4.97;;;3.80;;
9960;SDS011;5021;51.506;11.320;2023-07-16T03:15:23;4.90;;;3.70;;
9960;SDS011;5021;51.506;11.320;2023-07-16T03:17:49;4.20;;;3.80;;
9960;SDS011;5021;51.506;11.320;2023-07-16T03:20:15;4.13;;;3.67;;
9960;SDS011;5021;51.506;11.320;2023-07-16T03:22:41;4.13;;;3.63;;
9960;SDS011;5021;51.506;11.320;2023-07-16T03:25:07;4.63;;;3.60;;
9960;SDS011;5021;51.506;11.320;2023-07-16T03:27:33;5.17;;;3.80;;
9960;SDS011;5021;51.506;11.320;2023-07-16T03:29:59;3.80;;;3.40;;
9960;SDS011;5021;51.506;11.320;2023-07-16T03:32:25;3.77;;;3.40;;
9960;SDS011;5021;51.506;11.320;2023-07-16T03:34:51;4.00;;;3.43;;
9960;SDS011;5021;51.506;11.320;2023-07-16T03:37:17;5.60;;;3.80;;
9960;SDS011;5021;51.506;11.320;2023-07-16T03:39:43;4.60;;;3.80;;
9960;SDS011;5021;51.506;11.320;2023-07-16T03:42:08;6.07;;;3.83;;
9960;SDS011;5021;51.506;11.320;2023-07-16T03:44:34;4.37;;;3.80;;
9960;SDS011;5021;51.506;11.320;2023-07-16T03:47:00;5.27;;;3.77;;
9960;SDS011;5021;51.506;11.320;2023-07-16T03:49:26;4.70;;;3.83;;
9960;SDS011;5021;51.506;11.320;2023-07-16T03:51:52;5.03;;;3.63;;
9960;SDS011;5021;51.506;11.320;2023-07-16T03:54:18;4.83;;;3.57;;
9960;SDS011;5021;51.506;11.320;2023-07-16T03:56:44;5.00;;;3.80;;
9960;SDS011;5021;51.506;11.320;2023-07-16T03:59:10;4.83;;;3.60;;
9960;SDS011;5021;51.506;11.320;2023-07-16T04:01:36;4.87;;;3.53;;
9960;SDS011;5021;51.506;11.320;2023-07-16T04:04:02;6.07;;;3.80;;
9960;SDS011;5021;51.506;11.320;2023-07-16T04:06:28;3.50;;;3.20;;
9960;SDS011;5021;51.506;11.320;2023-07-16T04:08:54;4.03;;;2.97;;
9960;SDS011;5021;51.506;11.320;2023-07-16T04:11:20;4.30;;;3.10;;
9960;SDS011;5021;51.506;11.320;2023-07-16T04:13:45;3.90;;;3.27;;
9960;SDS011;5021;51.506;11.320;2023-07-16T04:16:11;3.37;;;3.07;;
9960;SDS011;5021;51.506;11.320;2023-07-16T04:18:37;4.90;;;3.10;;
9960;SDS011;5021;51.506;11.320;2023-07-16T04:21:03;4.83;;;3.10;;
9960;SDS011;5021;51.506;11.320;2023-07-16T04:23:29;3.30;;;2.80;;
9960;SDS011;5021;51.506;11.320;2023-07-16T04:25:55;3.17;;;2.60;;
9960;SDS011;5021;51.506;11.320;2023-07-16T04:28:21;3.40;;;3.10;;
9960;SDS011;5021;51.506;11.320;2023-07-16T04:30:47;3.80;;;2.67;;
9960;SDS011;5021;51.506;11.320;2023-07-16T04:33:13;2.83;;;2.53;;
9960;SDS011;5021;51.506;11.320;2023-07-16T04:35:39;3.77;;;2.90;;
9960;SDS011;5021;51.506;11.320;2023-07-16T04:38:05;5.20;;;2.90;;
9960;SDS011;5021;51.506;11.320;2023-07-16T04:40:33;2.97;;;2.70;;
9960;SDS011;5021;51.506;11.320;2023-07-16T04:42:59;3.30;;;2.80;;
9960;SDS011;5021;51.506;11.320;2023-07-16T04:45:25;3.03;;;2.63;;
9960;SDS011;5021;51.506;11.320;2023-07-16T04:47:50;5.43;;;3.10;;
9960;SDS011;5021;51.506;11.320;2023-07-16T04:50:16;4.17;;;2.70;;
9960;SDS011;5021;51.506;11.320;2023-07-16T04:52:42;3.47;;;2.80;;
9960;SDS011;5021;51.506;11.320;2023-07-16T04:55:08;3.60;;;2.77;;
9960;SDS011;5021;51.506;11.320;2023-07-16T04:57:34;4.13;;;2.80;;
9960;SDS011;5021;51.506;11.320;2023-07-16T05:00:00;4.30;;;2.93;;
9960;SDS011;5021;51.506;11.320;2023-07-16T05:02:27;3.53;;;2.87;;
9960;SDS011;5021;51.506;11.320;2023-07-16T05:04:53;4.03;;;2.80;;
9960;SDS011;5021;51.506;11.320;2023-07-16T05:07:19;4.20;;;2.70;;
9960;SDS011;5021;51.506;11.320;2023-07-16T05:09:45;3.00;;;2.70;;
9960;SDS011;5021;51.506;11.320;2023-07-16T05:12:10;3.17;;;2.87;;
9960;SDS011;5021;51.506;11.320;2023-07-16T05:14:46;2.60;;;2.40;;
9960;SDS011;5021;51.506;11.320;2023-07-16T05:17:13;4.60;;;2.77;;
9960;SDS011;5021;51.506;11.320;2023-07-16T05:19:39;3.43;;;2.43;;
9960;SDS011;5021;51.506;11.320;2023-07-16T05:22:05;3.67;;;2.57;;
9960;SDS011;5021;51.506;11.320;2023-07-16T05:24:31;2.97;;;2.37;;
9960;SDS011;5021;51.506;11.320;2023-07-16T05:26:57;2.57;;;2.20;;
9960;SDS011;5021;51.506;11.320;2023-07-16T05:29:23;5.40;;;2.40;;
9960;SDS011;5021;51.506;11.320;2023-07-16T05:31:49;4.33;;;2.60;;
9960;SDS011;5021;51.506;11.320;2023-07-16T05:34:15;3.80;;;2.20;;
9960;SDS011;5021;51.506;11.320;2023-07-16T05:36:41;5.40;;;2.10;;
9960;SDS011;5021;51.506;11.320;2023-07-16T05:39:09;3.83;;;1.97;;
9960;SDS011;5021;51.506;11.320;2023-07-16T05:41:37;3.47;;;2.17;;
9960;SDS011;5021;51.506;11.320;2023-07-16T05:44:03;4.07;;;2.10;;
9960;SDS011;5021;51.506;11.320;2023-07-16T05:46:29;4.40;;;2.27;;
9960;SDS011;5021;51.506;11.320;2023-07-16T05:48:55;3.93;;;2.03;;
9960;SDS011;5021;51.506;11.320;2023-07-16T05:51:21;3.57;;;2.23;;
9960;SDS011;5021;51.506;11.320;2023-07-16T05:53:47;2.97;;;2.00;;
9960;SDS011;5021;51.506;11.320;2023-07-16T05:56:13;2.83;;;1.87;;
9960;SDS011;5021;51.506;11.320;2023-07-16T05:58:39;4.13;;;2.30;;
9960;SDS011;5021;51.506;11.320;2023-07-16T06:01:05;3.97;;;2.20;;
9960;SDS011;5021;51.506;11.320;2023-07-16T06:03:31;3.30;;;1.73;;
9960;SDS011;5021;51.506;11.320;2023-07-16T06:05:57;2.63;;;1.80;;
9960;SDS011;5021;51.506;11.320;2023-07-16T06:08:23;2.80;;;1.90;;
9960;SDS011;5021;51.506;11.320;2023-07-16T06:10:50;3.63;;;1.93;;
9960;SDS011;5021;51.506;11.320;2023-07-16T06:13:15;2.03;;;1.80;;
9960;SDS011;5021;51.506;11.320;2023-07-16T06:15:41;3.03;;;2.10;;
9960;SDS011;5021;51.506;11.320;2023-07-16T06:18:07;5.10;;;2.00;;
9960;SDS011;5021;51.506;11.320;2023-07-16T06:20:33;3.57;;;1.90;;
9960;SDS011;5021;51.506;11.320;2023-07-16T06:22:59;2.80;;;1.90;;
9960;SDS011;5021;51.506;11.320;2023-07-16T06:25:25;3.57;;;2.20;;
9960;SDS011;5021;51.506;11.320;2023-07-16T06:27:51;2.90;;;1.90;;
9960;SDS011;5021;51.506;11.320;2023-07-16T06:30:17;2.80;;;1.77;;
9960;SDS011;5021;51.506;11.320;2023-07-16T06:32:43;7.93;;;2.13;;
9960;SDS011;5021;51.506;11.320;2023-07-16T06:35:09;2.60;;;1.60;;
9960;SDS011;5021;51.506;11.320;2023-07-16T06:37:35;3.73;;;1.70;;
9960;SDS011;5021;51.506;11.320;2023-07-16T06:40:01;2.83;;;1.98;;
9960;SDS011;5021;51.506;11.320;2023-07-16T06:42:28;3.75;;;1.80;;
9960;SDS011;5021;51.506;11.320;2023-07-16T06:44:54;2.80;;;1.70;;
9960;SDS011;5021;51.506;11.320;2023-07-16T06:47:20;3.45;;;1.52;;
9960;SDS011;5021;51.506;11.320;2023-07-16T06:49:46;3.22;;;1.75;;
9960;SDS011;5021;51.506;11.320;2023-07-16T06:52:21;3.17;;;1.80;;
9960;SDS011;5021;51.506;11.320;2023-07-16T06:54:49;3.25;;;1.80;;
9960;SDS011;5021;51.506;11.320;2023-07-16T06:57:15;2.53;;;1.98;;
9960;SDS011;5021;51.506;11.320;2023-07-16T06:59:41;2.67;;;1.63;;
9960;SDS011;5021;51.506;11.320;2023-07-16T07:02:07;3.20;;;1.88;;
9960;SDS011;5021;51.506;11.320;2023-07-16T07:04:33;4.50;;;1.90;;
9960;SDS011;5021;51.506;11.320;2023-07-16T07:06:59;3.00;;;2.10;;
9960;SDS011;5021;51.506;11.320;2023-07-16T07:09:25;5.30;;;1.70;;
9960;SDS011;5021;51.506;11.320;2023-07-16T07:11:50;4.93;;;2.10;;
9960;SDS011;5021;51.506;11.320;2023-07-16T07:14:16;5.53;;;1.70;;
9960;SDS011;5021;51.506;11.320;2023-07-16T07:16:42;4.00;;;1.67;;
9960;SDS011;5021;51.506;11.320;2023-07-16T07:19:08;3.75;;;2.22;;
9960;SDS011;5021;51.506;11.320;2023-07-16T07:21:34;2.95;;;2.03;;
9960;SDS011;5021;51.506;11.320;2023-07-16T07:24:00;3.72;;;1.98;;
9960;SDS011;5021;51.506;11.320;2023-07-16T07:26:26;2.88;;;1.92;;
9960;SDS011;5021;51.506;11.320;2023-07-16T07:28:52;2.70;;;1.90;;
9960;SDS011;5021;51.506;11.320;2023-07-16T07:31:18;5.55;;;1.83;;
9960;SDS011;5021;51.506;11.320;2023-07-16T07:33:44;2.53;;;1.65;;
9960;SDS011;5021;51.506;11.320;2023-07-16T07:36:10;3.42;;;1.88;;
9960;SDS011;5021;51.506;11.320;2023-07-16T07:38:36;4.45;;;1.60;;
9960;SDS011;5021;51.506;11.320;2023-07-16T07:41:04;3.78;;;1.90;;
9960;SDS011;5021;51.506;11.320;2023-07-16T07:43:30;3.10;;;1.85;;
9960;SDS011;5021;51.506;11.320;2023-07-16T07:45:56;3.88;;;1.77;;
9960;SDS011;5021;51.506;11.320;2023-07-16T07:48:22;2.72;;;1.60;;
9960;SDS011;5021;51.506;11.320;2023-07-16T07:50:49;2.47;;;1.67;;
9960;SDS011;5021;51.506;11.320;2023-07-16T07:53:15;2.33;;;1.73;;
9960;SDS011;5021;51.506;11.320;2023-07-16T07:55:43;3.33;;;1.80;;
9960;SDS011;5021;51.506;11.320;2023-07-16T07:58:09;4.38;;;1.80;;
9960;SDS011;5021;51.506;11.320;2023-07-16T08:00:35;2.88;;;1.60;;
9960;SDS011;5021;51.506;11.320;2023-07-16T08:03:01;3.17;;;1.95;;
9960;SDS011;5021;51.506;11.320;2023-07-16T08:05:27;2.55;;;1.80;;
9960;SDS011;5021;51.506;11.320;2023-07-16T08:07:53;3.13;;;1.60;;
9960;SDS011;5021;51.506;11.320;2023-07-16T08:10:20;3.90;;;1.90;;
9960;SDS011;5021;51.506;11.320;2023-07-16T08:12:46;4.80;;;1.70;;
9960;SDS011;5021;51.506;11.320;2023-07-16T08:15:12;3.90;;;1.73;;
9960;SDS011;5021;51.506;11.320;2023-07-16T08:17:41;2.90;;;1.80;;
9960;SDS011;5021;51.506;11.320;2023-07-16T08:20:07;3.88;;;1.77;;
9960;SDS011;5021;51.506;11.320;2023-07-16T08:22:33;2.77;;;1.80;;
9960;SDS011;5021;51.506;11.320;2023-07-16T08:24:59;4.17;;;1.90;;
9960;SDS011;5021;51.506;11.320;2023-07-16T08:27:25;3.57;;;1.90;;
9960;SDS011;5021;51.506;11.320;2023-07-16T08:29:51;3.37;;;1.70;;
9960;SDS011;5021;51.506;11.320;2023-07-16T08:32:17;3.53;;;1.90;;
9960;SDS011;5021;51.506;11.320;2023-07-16T08:34:43;2.80;;;1.90;;
9960;SDS011;5021;51.506;11.320;2023-07-16T08:37:09;3.17;;;1.88;;
9960;SDS011;5021;51.506;11.320;2023-07-16T08:39:35;3.47;;;1.97;;
9960;SDS011;5021;51.506;11.320;2023-07-16T08:42:01;3.50;;;1.77;;
9960;SDS011;5021;51.506;11.320;2023-07-16T08:44:27;3.40;;;2.10;;
9960;SDS011;5021;51.506;11.320;2023-07-16T08:46:53;3.30;;;1.93;;
9960;SDS011;5021;51.506;11.320;2023-07-16T08:49:20;2.30;;;1.80;;
9960;SDS011;5021;51.506;11.320;2023-07-16T08:51:48;3.07;;;1.90;;
9960;SDS011;5021;51.506;11.320;2023-07-16T08:54:14;4.03;;;2.10;;
9960;SDS011;5021;51.506;11.320;2023-07-16T08:56:43;4.67;;;1.90;;
9960;SDS011;5021;51.506;11.320;2023-07-16T08:59:09;3.93;;;1.90;;
9960;SDS011;5021;51.506;11.320;2023-07-16T09:01:36;2.93;;;1.70;;
9960;SDS011;5021;51.506;11.320;2023-07-16T09:04:02;3.23;;;1.70;;
9960;SDS011;5021;51.506;11.320;2023-07-16T09:06:28;3.43;;;1.97;;
9960;SDS011;5021;51.506;11.320;2023-07-16T09:08:54;4.00;;;2.10;;
9960;SDS011;5021;51.506;11.320;2023-07-16T09:11:20;4.23;;;1.93;;
9960;SDS011;5021;51.506;11.320;2023-07-16T09:13:47;5.57;;;1.83;;
9960;SDS011;5021;51.506;11.320;2023-07-16T09:16:13;3.63;;;1.90;;
9960;SDS011;5021;51.506;11.320;2023-07-16T09:18:41;3.70;;;1.90;;
9960;SDS011;5021;51.506;11.320;2023-07-16T09:21:08;2.97;;;1.80;;
9960;SDS011;5021;51.506;11.320;2023-07-16T09:23:34;3.60;;;2.00;;
9960;SDS011;5021;51.506;11.320;2023-07-16T09:26:01;3.93;;;1.90;;
9960;SDS011;5021;51.506;11.320;2023-07-16T09:28:29;4.53;;;2.07;;
9960;SDS011;5021;51.506;11.320;2023-07-16T09:30:55;3.10;;;1.90;;
9960;SDS011;5021;51.506;11.320;2023-07-16T09:33:22;2.87;;;1.90;;
9960;SDS011;5021;51.506;11.320;2023-07-16T09:35:51;3.50;;;1.83;;
9960;SDS011;5021;51.506;11.320;2023-07-16T09:38:17;3.00;;;2.07;;
9960;SDS011;5021;51.506;11.320;2023-07-16T09:40:43;4.57;;;1.80;;
9960;SDS011;5021;51.506;11.320;2023-07-16T09:43:10;3.67;;;2.20;;
9960;SDS011;5021;51.506;11.320;2023-07-16T09:45:36;3.83;;;1.90;;
9960;SDS011;5021;51.506;11.320;2023-07-16T09:48:02;3.07;;;1.90;;
9960;SDS011;5021;51.506;11.320;2023-07-16T09:50:29;3.27;;;1.90;;
9960;SDS011;5021;51.506;11.320;2023-07-16T09:52:56;4.33;;;2.00;;
9960;SDS011;5021;51.506;11.320;2023-07-16T09:55:22;5.27;;;2.33;;
9960;SDS011;5021;51.506;11.320;2023-07-16T09:57:48;4.37;;;2.20;;
9960;SDS011;5021;51.506;11.320;2023-07-16T10:00:14;3.63;;;2.10;;
9960;SDS011;5021;51.506;11.320;2023-07-16T10:02:41;3.17;;;1.70;;
9960;SDS011;5021;51.506;11.320;2023-07-16T10:05:11;4.30;;;2.10;;
9960;SDS011;5021;51.506;11.320;2023-07-16T10:07:37;3.67;;;2.10;;
9960;SDS011;5021;51.506;11.320;2023-07-16T10:10:07;4.10;;;2.10;;
9960;SDS011;5021;51.506;11.320;2023-07-16T10:12:34;2.97;;;1.80;;
9960;SDS011;5021;51.506;11.320;2023-07-16T10:15:00;3.13;;;1.97;;
9960;SDS011;5021;51.506;11.320;2023-07-16T10:17:32;2.80;;;1.90;;
9960;SDS011;5021;51.506;11.320;2023-07-16T10:19:59;3.13;;;2.00;;
9960;SDS011;5021;51.506;11.320;2023-07-16T10:22:32;4.63;;;2.13;;
9960;SDS011;5021;51.506;11.320;2023-07-16T10:24:59;4.07;;;2.20;;
9960;SDS011;5021;51.506;11.320;2023-07-16T10:27:26;4.67;;;2.00;;
9960;SDS011;5021;51.506;11.320;2023-07-16T10:29:53;4.07;;;2.00;;
9960;SDS011;5021;51.506;11.320;2023-07-16T10:32:19;3.17;;;2.17;;
9960;SDS011;5021;51.506;11.320;2023-07-16T10:34:45;2.00;;;1.50;;
9960;SDS011;5021;51.506;11.320;2023-07-16T10:37:11;5.65;;;2.35;;
9960;SDS011;5021;51.506;11.320;2023-07-16T10:39:47;4.55;;;2.03;;
9960;SDS011;5021;51.506;11.320;2023-07-16T10:42:13;5.65;;;1.98;;
9960;SDS011;5021;51.506;11.320;2023-07-16T10:44:40;4.38;;;2.25;;
9960;SDS011;5021;51.506;11.320;2023-07-16T10:47:06;3.67;;;1.90;;
9960;SDS011;5021;51.506;11.320;2023-07-16T10:49:32;4.15;;;2.50;;
9960;SDS011;5021;51.506;11.320;2023-07-16T10:51:59;5.97;;;2.00;;
9960;SDS011;5021;51.506;11.320;2023-07-16T10:54:25;3.20;;;2.08;;
9960;SDS011;5021;51.506;11.320;2023-07-16T10:56:51;4.75;;;1.98;;
9960;SDS011;5021;51.506;11.320;2023-07-16T10:59:18;3.65;;;2.05;;
9960;SDS011;5021;51.506;11.320;2023-07-16T11:01:44;5.13;;;2.35;;
9960;SDS011;5021;51.506;11.320;2023-07-16T11:04:10;3.10;;;2.42;;
9960;SDS011;5021;51.506;11.320;2023-07-16T11:06:35;3.45;;;1.98;;
9960;SDS011;5021;51.506;11.320;2023-07-16T11:09:08;4.63;;;2.05;;
9960;SDS011;5021;51.506;11.320;2023-07-16T11:11:34;6.95;;;2.10;;
9960;SDS011;5021;51.506;11.320;2023-07-16T11:14:02;4.45;;;2.20;;
9960;SDS011;5021;51.506;11.320;2023-07-16T11:16:32;5.15;;;2.13;;
9960;SDS011;5021;51.506;11.320;2023-07-16T11:18:58;2.78;;;2.13;;
9960;SDS011;5021;51.506;11.320;2023-07-16T11:21:24;6.57;;;2.25;;
9960;SDS011;5021;51.506;11.320;2023-07-16T11:23:50;2.70;;;2.10;;
9960;SDS011;5021;51.506;11.320;2023-07-16T11:26:16;2.85;;;1.95;;
9960;SDS011;5021;51.506;11.320;2023-07-16T11:28:42;4.20;;;2.20;;
9960;SDS011;5021;51.506;11.320;2023-07-16T11:31:15;3.35;;;2.08;;
9960;SDS011;5021;51.506;11.320;2023-07-16T11:33:42;4.10;;;2.20;;
9960;SDS011;5021;51.506;11.320;2023-07-16T11:36:08;4.80;;;2.00;;
9960;SDS011;5021;51.506;11.320;2023-07-16T11:38:38;4.30;;;2.00;;
9960;SDS011;5021;51.506;11.320;2023-07-16T11:41:04;5.45;;;2.10;;
9960;SDS011;5021;51.506;11.320;2023-07-16T11:43:37;3.45;;;2.08;;
9960;SDS011;5021;51.506;11.320;2023-07-16T11:46:13;5.00;;;2.10;;
9960;SDS011;5021;51.506;11.320;2023-07-16T11:48:40;2.85;;;2.20;;
9960;SDS011;5021;51.506;11.320;2023-07-16T11:51:06;3.10;;;2.10;;
9960;SDS011;5021;51.506;11.320;2023-07-16T11:53:32;3.42;;;2.03;;
9960;SDS011;5021;51.506;11.320;2023-07-16T11:55:58;5.68;;;2.17;;
9960;SDS011;5021;51.506;11.320;2023-07-16T11:58:24;3.38;;;2.38;;
9960;SDS011;5021;51.506;11.320;2023-07-16T12:00:49;3.80;;;2.25;;
9960;SDS011;5021;51.506;11.320;2023-07-16T12:03:16;3.33;;;2.10;;
9960;SDS011;5021;51.506;11.320;2023-07-16T12:05:43;7.70;;;2.33;;
9960;SDS011;5021;51.506;11.320;2023-07-16T12:08:09;3.45;;;2.38;;
9960;SDS011;5021;51.506;11.320;2023-07-16T12:10:39;5.57;;;2.30;;
9960;SDS011;5021;51.506;11.320;2023-07-16T12:13:05;6.95;;;2.45;;
9960;SDS011;5021;51.506;11.320;2023-07-16T12:15:31;3.45;;;2.38;;
9960;SDS011;5021;51.506;11.320;2023-07-16T12:17:58;2.93;;;2.13;;
9960;SDS011;5021;51.506;11.320;2023-07-16T12:20:24;3.67;;;2.30;;
9960;SDS011;5021;51.506;11.320;2023-07-16T12:22:50;5.28;;;2.80;;
9960;SDS011;5021;51.506;11.320;2023-07-16T12:25:16;2.90;;;2.30;;
9960;SDS011;5021;51.506;11.320;2023-07-16T12:27:42;3.63;;;2.40;;
9960;SDS011;5021;51.506;11.320;2023-07-16T12:30:08;5.32;;;2.17;;
9960;SDS011;5021;51.506;11.320;2023-07-16T12:32:35;4.63;;;2.42;;
9960;SDS011;5021;51.506;11.320;2023-07-16T12:35:01;2.92;;;2.33;;
9960;SDS011;5021;51.506;11.320;2023-07-16T12:37:28;2.83;;;2.20;;
9960;SDS011;5021;51.506;11.320;2023-07-16T12:39:54;5.05;;;2.58;;
9960;SDS011;5021;51.506;11.320;2023-07-16T12:42:20;5.43;;;2.50;;
9960;SDS011;5021;51.506;11.320;2023-07-16T12:44:46;2.88;;;2.25;;
9960;SDS011;5021;51.506;11.320;2023-07-16T12:47:12;4.13;;;2.50;;
9960;SDS011;5021;51.506;11.320;2023-07-16T12:49:38;3.35;;;2.20;;
9960;SDS011;5021;51.506;11.320;2023-07-16T12:52:04;2.85;;;2.30;;
9960;SDS011;5021;51.506;11.320;2023-07-16T12:54:30;3.92;;;2.40;;
9960;SDS011;5021;51.506;11.320;2023-07-16T12:56:56;3.38;;;2.40;;
9960;SDS011;5021;51.506;11.320;2023-07-16T12:59:22;3.83;;;2.53;;
9960;SDS011;5021;51.506;11.320;2023-07-16T13:01:49;3.63;;;2.30;;
9960;SDS011;5021;51.506;11.320;2023-07-16T13:04:16;5.85;;;2.42;;
9960;SDS011;5021;51.506;11.320;2023-07-16T13:06:41;4.75;;;2.30;;
9960;SDS011;5021;51.506;11.320;2023-07-16T13:09:09;3.60;;;2.80;;
9960;SDS011;5021;51.506;11.320;2023-07-16T13:11:35;2.80;;;2.30;;
9960;SDS011;5021;51.506;11.320;2023-07-16T13:14:01;3.60;;;2.20;;
9960;SDS011;5021;51.506;11.320;2023-07-16T13:16:27;4.00;;;2.42;;
9960;SDS011;5021;51.506;11.320;2023-07-16T13:18:53;4.15;;;2.67;;
9960;SDS011;5021;51.506;11.320;2023-07-16T13:21:19;4.40;;;2.72;;
9960;SDS011;5021;51.506;11.320;2023-07-16T13:23:45;3.45;;;2.38;;
9960;SDS011;5021;51.506;11.320;2023-07-16T13:26:11;4.68;;;2.50;;
9960;SDS011;5021;51.506;11.320;2023-07-16T13:28:37;3.33;;;2.33;;
9960;SDS011;5021;51.506;11.320;2023-07-16T13:31:03;4.05;;;2.38;;
9960;SDS011;5021;51.506;11.320;2023-07-16T13:33:29;4.65;;;2.70;;
9960;SDS011;5021;51.506;11.320;2023-07-16T13:35:55;3.83;;;2.30;;
9960;SDS011;5021;51.506;11.320;2023-07-16T13:38:22;5.20;;;2.30;;
9960;SDS011;5021;51.506;11.320;2023-07-16T13:40:48;4.28;;;2.60;;
9960;SDS011;5021;51.506;11.320;2023-07-16T13:43:14;5.15;;;2.75;;
9960;SDS011;5021;51.506;11.320;2023-07-16T13:45:39;4.43;;;2.75;;
9960;SDS011;5021;51.506;11.320;2023-07-16T13:48:05;3.88;;;2.45;;
9960;SDS011;5021;51.506;11.320;2023-07-16T13:50:31;3.30;;;2.72;;
9960;SDS011;5021;51.506;11.320;2023-07-16T13:52:57;4.65;;;2.55;;
9960;SDS011;5021;51.506;11.320;2023-07-16T13:55:26;3.60;;;2.33;;
9960;SDS011;5021;51.506;11.320;2023-07-16T13:57:52;3.00;;;2.30;;
9960;SDS011;5021;51.506;11.320;2023-07-16T14:00:18;2.95;;;2.50;;
9960;SDS011;5021;51.506;11.320;2023-07-16T14:02:44;3.28;;;2.60;;
9960;SDS011;5021;51.506;11.320;2023-07-16T14:05:10;3.88;;;2.55;;
9960;SDS011;5021;51.506;11.320;2023-07-16T14:07:36;5.10;;;2.70;;
9960;SDS011;5021;51.506;11.320;2023-07-16T14:10:02;3.78;;;2.60;;
9960;SDS011;5021;51.506;11.320;2023-07-16T14:12:29;6.32;;;2.58;;
9960;SDS011;5021;51.506;11.320;2023-07-16T14:14:55;3.85;;;2.88;;
9960;SDS011;5021;51.506;11.320;2023-07-16T14:17:21;6.28;;;3.00;;
9960;SDS011;5021;51.506;11.320;2023-07-16T14:19:47;3.78;;;2.58;;
9960;SDS011;5021;51.506;11.320;2023-07-16T14:22:13;3.40;;;2.58;;
9960;SDS011;5021;51.506;11.320;2023-07-16T14:24:40;4.85;;;2.60;;
9960;SDS011;5021;51.506;11.320;2023-07-16T14:27:07;3.72;;;2.40;;
9960;SDS011;5021;51.506;11.320;2023-07-16T14:29:33;3.75;;;2.60;;
9960;SDS011;5021;51.506;11.320;2023-07-16T14:31:59;6.03;;;2.58;;
9960;SDS011;5021;51.506;11.320;2023-07-16T14:34:26;4.13;;;2.75;;
9960;SDS011;5021;51.506;11.320;2023-07-16T14:36:52;4.13;;;2.47;;
9960;SDS011;5021;51.506;11.320;2023-07-16T14:39:18;3.58;;;2.80;;
9960;SDS011;5021;51.506;11.320;2023-07-16T14:41:44;3.60;;;3.13;;
9960;SDS011;5021;51.506;11.320;2023-07-16T14:44:10;4.70;;;2.78;;
9960;SDS011;5021;51.506;11.320;2023-07-16T14:46:36;4.15;;;2.65;;
9960;SDS011;5021;51.506;11.320;2023-07-16T14:49:02;3.97;;;2.50;;
9960;SDS011;5021;51.506;11.320;2023-07-16T14:51:28;3.33;;;2.30;;
9960;SDS011;5021;51.506;11.320;2023-07-16T14:54:04;3.60;;;2.60;;
9960;SDS011;5021;51.506;11.320;2023-07-16T14:56:30;3.17;;;2.00;;
9960;SDS011;5021;51.506;11.320;2023-07-16T14:58:56;3.35;;;2.50;;
9960;SDS011;5021;51.506;11.320;2023-07-16T15:01:22;4.13;;;2.53;;
9960;SDS011;5021;51.506;11.320;2023-07-16T15:03:48;4.65;;;2.70;;